sensor_id;sensor_type;location;lat;lon;timestamp;P1;durP1;ratioP1;P2;durP2;ratioP2
3487;SDS011;38546;48.170;11.724;2023-04-15T00:00:02;9.70;;;6.40;;
3487;SDS011;38546;48.170;11.724;2023-04-15T00:02:52;11.20;;;6.27;;
3487;SDS011;38546;48.170;11.724;2023-04-15T00:05:41;19.93;;;7.80;;
3487;SDS011;38546;48.170;11.724;2023-04-15T00:08:30;13.97;;;7.00;;
3487;SDS011;38546;48.170;11.724;2023-04-15T00:11:20;7.53;;;6.73;;
3487;SDS011;38546;48.170;11.724;2023-04-15T00:14:09;15.83;;;7.33;;
3487;SDS011;38546;48.170;11.724;2023-04-15T00:16:58;9.97;;;6.77;;
3487;SDS011;38546;48.170;11.724;2023-04-15T00:19:48;17.07;;;6.80;;
3487;SDS011;38546;48.170;11.724;2023-04-15T00:22:38;17.50;;;6.50;;
3487;SDS011;38546;48.170;11.724;2023-04-15T00:25:28;10.30;;;6.87;;
3487;SDS011;38546;48.170;11.724;2023-04-15T00:28:17;11.10;;;7.00;;
3487;SDS011;38546;48.170;11.724;2023-04-15T00:31:07;8.80;;;6.87;;
3487;SDS011;38546;48.170;11.724;2023-04-15T00:33:57;19.10;;;7.03;;
3487;SDS011;38546;48.170;11.724;2023-04-15T00:36:47;14.03;;;8.30;;
3487;SDS011;38546;48.170;11.724;2023-04-15T00:39:39;11.30;;;7.50;;
3487;SDS011;38546;48.170;11.724;2023-04-15T00:42:28;16.80;;;7.27;;
3487;SDS011;38546;48.170;11.724;2023-04-15T00:45:17;14.07;;;7.70;;
3487;SDS011;38546;48.170;11.724;2023-04-15T00:48:07;10.23;;;7.60;;
3487;SDS011;38546;48.170;11.724;2023-04-15T00:50:57;15.03;;;7.33;;
3487;SDS011;38546;48.170;11.724;2023-04-15T00:53:46;13.30;;;7.80;;
3487;SDS011;38546;48.170;11.724;2023-04-15T00:56:36;12.17;;;7.90;;
3487;SDS011;38546;48.170;11.724;2023-04-15T00:59:27;13.53;;;9.00;;
3487;SDS011;38546;48.170;11.724;2023-04-15T01:02:18;15.37;;;8.50;;
3487;SDS011;38546;48.170;11.724;2023-04-15T01:05:08;15.43;;;8.17;;
3487;SDS011;38546;48.170;11.724;2023-04-15T01:07:57;14.40;;;8.07;;
3487;SDS011;38546;48.170;11.724;2023-04-15T01:10:47;13.97;;;8.53;;
3487;SDS011;38546;48.170;11.724;2023-04-15T01:13:36;11.50;;;8.13;;
3487;SDS011;38546;48.170;11.724;2023-04-15T01:16:26;13.63;;;8.93;;
3487;SDS011;38546;48.170;11.724;2023-04-15T01:19:16;17.03;;;9.17;;
3487;SDS011;38546;48.170;11.724;2023-04-15T01:22:06;17.67;;;9.43;;
3487;SDS011;38546;48.170;11.724;2023-04-15T01:25:57;16.53;;;8.53;;
3487;SDS011;38546;48.170;11.724;2023-04-15T01:28:47;16.90;;;8.83;;
3487;SDS011;38546;48.170;11.724;2023-04-15T01:31:36;15.80;;;9.53;;
3487;SDS011;38546;48.170;11.724;2023-04-15T01:34:26;18.17;;;10.13;;
3487;SDS011;38546;48.170;11.724;2023-04-15T01:37:15;15.73;;;9.57;;
3487;SDS011;38546;48.170;11.724;2023-04-15T01:40:05;15.90;;;9.60;;
3487;SDS011;38546;48.170;11.724;2023-04-15T01:42:55;12.93;;;9.17;;
3487;SDS011;38546;48.170;11.724;2023-04-15T01:45:45;12.93;;;8.70;;
3487;SDS011;38546;48.170;11.724;2023-04-15T01:48:34;15.23;;;9.10;;
3487;SDS011;38546;48.170;11.724;2023-04-15T01:51:23;13.90;;;9.17;;
3487;SDS011;38546;48.170;11.724;2023-04-15T01:54:12;25.70;;;8.93;;
3487;SDS011;38546;48.170;11.724;2023-04-15T01:57:02;17.20;;;9.80;;
3487;SDS011;38546;48.170;11.724;2023-04-15T01:59:51;11.77;;;9.20;;
3487;SDS011;38546;48.170;11.724;2023-04-15T02:02:41;12.30;;;9.37;;
3487;SDS011;38546;48.170;11.724;2023-04-15T02:05:30;13.80;;;9.03;;
3487;SDS011;38546;48.170;11.724;2023-04-15T02:08:19;17.57;;;9.57;;
3487;SDS011;38546;48.170;11.724;2023-04-15T02:11:08;12.30;;;9.10;;
3487;SDS011;38546;48.170;11.724;2023-04-15T02:13:58;15.73;;;8.47;;
3487;SDS011;38546;48.170;11.724;2023-04-15T02:16:47;16.57;;;9.20;;
3487;SDS011;38546;48.170;11.724;2023-04-15T02:19:36;14.70;;;9.40;;
3487;SDS011;38546;48.170;11.724;2023-04-15T02:22:26;19.80;;;9.93;;
3487;SDS011;38546;48.170;11.724;2023-04-15T02:25:16;20.00;;;9.80;;
3487;SDS011;38546;48.170;11.724;2023-04-15T02:28:06;14.30;;;8.40;;
3487;SDS011;38546;48.170;11.724;2023-04-15T02:30:55;15.30;;;8.70;;
3487;SDS011;38546;48.170;11.724;2023-04-15T02:33:46;17.20;;;9.40;;
3487;SDS011;38546;48.170;11.724;2023-04-15T02:36:36;11.07;;;8.43;;
3487;SDS011;38546;48.170;11.724;2023-04-15T02:39:25;19.47;;;10.50;;
3487;SDS011;38546;48.170;11.724;2023-04-15T02:42:14;16.77;;;9.10;;
3487;SDS011;38546;48.170;11.724;2023-04-15T02:45:04;11.17;;;8.10;;
3487;SDS011;38546;48.170;11.724;2023-04-15T02:47:55;15.73;;;9.90;;
3487;SDS011;38546;48.170;11.724;2023-04-15T02:50:45;12.30;;;8.60;;
3487;SDS011;38546;48.170;11.724;2023-04-15T02:53:34;14.80;;;9.27;;
3487;SDS011;38546;48.170;11.724;2023-04-15T02:56:24;13.13;;;7.80;;
3487;SDS011;38546;48.170;11.724;2023-04-15T02:59:14;15.23;;;8.23;;
3487;SDS011;38546;48.170;11.724;2023-04-15T03:02:03;14.13;;;8.30;;
3487;SDS011;38546;48.170;11.724;2023-04-15T03:04:55;14.63;;;8.53;;
3487;SDS011;38546;48.170;11.724;2023-04-15T03:07:44;9.80;;;7.43;;
3487;SDS011;38546;48.170;11.724;2023-04-15T03:10:33;14.00;;;8.47;;
3487;SDS011;38546;48.170;11.724;2023-04-15T03:13:22;12.67;;;7.50;;
3487;SDS011;38546;48.170;11.724;2023-04-15T03:16:12;10.80;;;7.30;;
3487;SDS011;38546;48.170;11.724;2023-04-15T03:19:01;13.30;;;7.57;;
3487;SDS011;38546;48.170;11.724;2023-04-15T03:21:50;9.33;;;6.93;;
3487;SDS011;38546;48.170;11.724;2023-04-15T03:24:40;13.20;;;7.53;;
3487;SDS011;38546;48.170;11.724;2023-04-15T03:27:29;11.30;;;7.50;;
3487;SDS011;38546;48.170;11.724;2023-04-15T03:30:18;12.50;;;7.40;;
3487;SDS011;38546;48.170;11.724;2023-04-15T03:33:08;11.50;;;7.97;;
3487;SDS011;38546;48.170;11.724;2023-04-15T03:35:57;11.00;;;6.50;;
3487;SDS011;38546;48.170;11.724;2023-04-15T03:38:47;11.77;;;8.20;;
3487;SDS011;38546;48.170;11.724;2023-04-15T03:41:38;11.70;;;7.93;;
3487;SDS011;38546;48.170;11.724;2023-04-15T03:44:27;10.40;;;7.60;;
3487;SDS011;38546;48.170;11.724;2023-04-15T03:47:16;15.70;;;8.60;;
3487;SDS011;38546;48.170;11.724;2023-04-15T03:50:05;13.10;;;8.97;;
3487;SDS011;38546;48.170;11.724;2023-04-15T03:52:56;11.37;;;7.37;;
3487;SDS011;38546;48.170;11.724;2023-04-15T03:55:45;12.43;;;7.57;;
3487;SDS011;38546;48.170;11.724;2023-04-15T03:58:35;13.47;;;8.07;;
3487;SDS011;38546;48.170;11.724;2023-04-15T04:01:24;10.90;;;7.10;;
3487;SDS011;38546;48.170;11.724;2023-04-15T04:04:13;11.93;;;7.53;;
3487;SDS011;38546;48.170;11.724;2023-04-15T04:07:03;11.60;;;7.83;;
3487;SDS011;38546;48.170;11.724;2023-04-15T04:09:52;13.23;;;7.63;;
3487;SDS011;38546;48.170;11.724;2023-04-15T04:12:41;11.77;;;7.80;;
3487;SDS011;38546;48.170;11.724;2023-04-15T04:15:31;23.17;;;7.50;;
3487;SDS011;38546;48.170;11.724;2023-04-15T04:18:20;12.37;;;7.43;;
3487;SDS011;38546;48.170;11.724;2023-04-15T04:21:09;10.93;;;7.67;;
3487;SDS011;38546;48.170;11.724;2023-04-15T04:23:59;16.17;;;7.77;;
3487;SDS011;38546;48.170;11.724;2023-04-15T04:26:48;12.53;;;7.73;;
3487;SDS011;38546;48.170;11.724;2023-04-15T04:29:37;10.40;;;6.93;;
3487;SDS011;38546;48.170;11.724;2023-04-15T04:32:26;9.77;;;6.90;;
3487;SDS011;38546;48.170;11.724;2023-04-15T04:35:16;12.63;;;7.70;;
3487;SDS011;38546;48.170;11.724;2023-04-15T04:38:05;14.90;;;7.37;;
3487;SDS011;38546;48.170;11.724;2023-04-15T04:40:54;11.40;;;7.40;;
3487;SDS011;38546;48.170;11.724;2023-04-15T04:43:43;9.67;;;6.43;;
3487;SDS011;38546;48.170;11.724;2023-04-15T04:46:33;9.77;;;7.47;;
3487;SDS011;38546;48.170;11.724;2023-04-15T04:49:22;11.20;;;6.33;;
3487;SDS011;38546;48.170;11.724;2023-04-15T04:52:11;12.40;;;6.63;;
3487;SDS011;38546;48.170;11.724;2023-04-15T04:55:00;17.43;;;5.90;;
3487;SDS011;38546;48.170;11.724;2023-04-15T04:57:49;10.50;;;5.77;;
3487;SDS011;38546;48.170;11.724;2023-04-15T05:00:39;12.13;;;7.17;;
3487;SDS011;38546;48.170;11.724;2023-04-15T05:03:29;10.03;;;6.60;;
3487;SDS011;38546;48.170;11.724;2023-04-15T05:06:19;8.13;;;5.70;;
3487;SDS011;38546;48.170;11.724;2023-04-15T05:09:09;9.73;;;5.70;;
3487;SDS011;38546;48.170;11.724;2023-04-15T05:11:58;7.77;;;5.63;;
3487;SDS011;38546;48.170;11.724;2023-04-15T05:14:49;16.87;;;5.37;;
3487;SDS011;38546;48.170;11.724;2023-04-15T05:17:38;7.00;;;5.80;;
3487;SDS011;38546;48.170;11.724;2023-04-15T05:20:27;10.20;;;6.17;;
3487;SDS011;38546;48.170;11.724;2023-04-15T05:23:16;7.13;;;4.90;;
3487;SDS011;38546;48.170;11.724;2023-04-15T05:26:07;9.47;;;5.50;;
3487;SDS011;38546;48.170;11.724;2023-04-15T05:28:56;7.37;;;5.13;;
3487;SDS011;38546;48.170;11.724;2023-04-15T05:31:45;6.23;;;4.63;;
3487;SDS011;38546;48.170;11.724;2023-04-15T05:34:34;10.70;;;5.60;;
3487;SDS011;38546;48.170;11.724;2023-04-15T05:37:23;8.50;;;4.70;;
3487;SDS011;38546;48.170;11.724;2023-04-15T05:40:13;9.90;;;5.50;;
3487;SDS011;38546;48.170;11.724;2023-04-15T05:43:03;8.73;;;5.23;;
3487;SDS011;38546;48.170;11.724;2023-04-15T05:45:52;6.93;;;5.23;;
3487;SDS011;38546;48.170;11.724;2023-04-15T05:48:41;5.40;;;4.50;;
3487;SDS011;38546;48.170;11.724;2023-04-15T05:51:30;10.60;;;4.50;;
3487;SDS011;38546;48.170;11.724;2023-04-15T05:54:20;4.63;;;4.20;;
3487;SDS011;38546;48.170;11.724;2023-04-15T05:57:12;5.80;;;4.20;;
3487;SDS011;38546;48.170;11.724;2023-04-15T06:00:01;12.40;;;4.47;;
3487;SDS011;38546;48.170;11.724;2023-04-15T06:02:52;5.70;;;4.60;;
3487;SDS011;38546;48.170;11.724;2023-04-15T06:05:42;5.20;;;4.10;;
3487;SDS011;38546;48.170;11.724;2023-04-15T06:08:32;5.47;;;4.23;;
3487;SDS011;38546;48.170;11.724;2023-04-15T06:11:21;7.97;;;4.10;;
3487;SDS011;38546;48.170;11.724;2023-04-15T06:14:10;5.23;;;4.40;;
3487;SDS011;38546;48.170;11.724;2023-04-15T06:16:58;6.80;;;3.90;;
3487;SDS011;38546;48.170;11.724;2023-04-15T06:19:47;5.27;;;3.90;;
3487;SDS011;38546;48.170;11.724;2023-04-15T06:22:37;4.30;;;3.63;;
3487;SDS011;38546;48.170;11.724;2023-04-15T06:25:26;4.10;;;3.60;;
3487;SDS011;38546;48.170;11.724;2023-04-15T06:28:15;4.73;;;3.60;;
3487;SDS011;38546;48.170;11.724;2023-04-15T06:31:04;5.50;;;3.40;;
3487;SDS011;38546;48.170;11.724;2023-04-15T06:33:53;3.57;;;3.23;;
3487;SDS011;38546;48.170;11.724;2023-04-15T06:36:42;5.47;;;4.00;;
3487;SDS011;38546;48.170;11.724;2023-04-15T06:39:31;7.20;;;3.70;;
3487;SDS011;38546;48.170;11.724;2023-04-15T06:42:20;3.33;;;2.93;;
3487;SDS011;38546;48.170;11.724;2023-04-15T06:45:10;2.67;;;2.50;;
3487;SDS011;38546;48.170;11.724;2023-04-15T06:47:59;4.47;;;3.17;;
3487;SDS011;38546;48.170;11.724;2023-04-15T06:50:48;4.60;;;3.07;;
3487;SDS011;38546;48.170;11.724;2023-04-15T06:53:38;3.63;;;2.47;;
3487;SDS011;38546;48.170;11.724;2023-04-15T06:56:29;4.57;;;3.10;;
3487;SDS011;38546;48.170;11.724;2023-04-15T06:59:22;4.73;;;3.30;;
3487;SDS011;38546;48.170;11.724;2023-04-15T07:02:12;6.80;;;3.40;;
3487;SDS011;38546;48.170;11.724;2023-04-15T07:05:02;2.87;;;2.57;;
3487;SDS011;38546;48.170;11.724;2023-04-15T07:07:53;3.97;;;3.03;;
3487;SDS011;38546;48.170;11.724;2023-04-15T07:10:42;7.80;;;3.53;;
3487;SDS011;38546;48.170;11.724;2023-04-15T07:13:31;5.30;;;3.30;;
3487;SDS011;38546;48.170;11.724;2023-04-15T07:16:20;4.27;;;3.77;;
3487;SDS011;38546;48.170;11.724;2023-04-15T07:19:09;3.37;;;2.50;;
3487;SDS011;38546;48.170;11.724;2023-04-15T07:21:59;3.00;;;2.77;;
3487;SDS011;38546;48.170;11.724;2023-04-15T07:24:48;3.70;;;3.20;;
3487;SDS011;38546;48.170;11.724;2023-04-15T07:27:38;5.50;;;2.63;;
3487;SDS011;38546;48.170;11.724;2023-04-15T07:30:27;6.00;;;3.50;;
3487;SDS011;38546;48.170;11.724;2023-04-15T07:33:16;5.17;;;3.20;;
3487;SDS011;38546;48.170;11.724;2023-04-15T07:36:06;7.90;;;4.27;;
3487;SDS011;38546;48.170;11.724;2023-04-15T07:38:55;5.90;;;3.50;;
3487;SDS011;38546;48.170;11.724;2023-04-15T07:41:45;7.60;;;3.80;;
3487;SDS011;38546;48.170;11.724;2023-04-15T07:44:35;2.93;;;2.57;;
3487;SDS011;38546;48.170;11.724;2023-04-15T07:47:24;3.30;;;3.00;;
3487;SDS011;38546;48.170;11.724;2023-04-15T07:50:15;4.50;;;2.77;;
3487;SDS011;38546;48.170;11.724;2023-04-15T07:53:05;4.17;;;2.83;;
3487;SDS011;38546;48.170;11.724;2023-04-15T07:55:54;5.03;;;3.43;;
3487;SDS011;38546;48.170;11.724;2023-04-15T07:58:44;2.87;;;2.67;;
3487;SDS011;38546;48.170;11.724;2023-04-15T08:01:33;5.20;;;3.57;;
3487;SDS011;38546;48.170;11.724;2023-04-15T08:04:23;3.23;;;2.93;;
3487;SDS011;38546;48.170;11.724;2023-04-15T08:07:13;4.10;;;3.37;;
3487;SDS011;38546;48.170;11.724;2023-04-15T08:10:02;3.70;;;3.10;;
3487;SDS011;38546;48.170;11.724;2023-04-15T08:12:53;4.83;;;3.17;;
3487;SDS011;38546;48.170;11.724;2023-04-15T08:15:42;5.03;;;3.83;;
3487;SDS011;38546;48.170;11.724;2023-04-15T08:18:32;3.43;;;3.10;;
3487;SDS011;38546;48.170;11.724;2023-04-15T08:21:21;2.97;;;2.73;;
3487;SDS011;38546;48.170;11.724;2023-04-15T08:24:11;5.83;;;3.30;;
3487;SDS011;38546;48.170;11.724;2023-04-15T08:27:01;6.87;;;3.50;;
3487;SDS011;38546;48.170;11.724;2023-04-15T08:29:52;3.90;;;3.23;;
3487;SDS011;38546;48.170;11.724;2023-04-15T08:32:41;4.33;;;2.90;;
3487;SDS011;38546;48.170;11.724;2023-04-15T08:35:34;5.93;;;3.73;;
3487;SDS011;38546;48.170;11.724;2023-04-15T08:38:23;3.43;;;3.10;;
3487;SDS011;38546;48.170;11.724;2023-04-15T08:41:20;3.70;;;3.40;;
3487;SDS011;38546;48.170;11.724;2023-04-15T08:44:11;5.90;;;3.37;;
3487;SDS011;38546;48.170;11.724;2023-04-15T08:47:02;3.47;;;3.17;;
3487;SDS011;38546;48.170;11.724;2023-04-15T08:49:56;6.43;;;3.60;;
3487;SDS011;38546;48.170;11.724;2023-04-15T08:52:46;3.73;;;3.23;;
3487;SDS011;38546;48.170;11.724;2023-04-15T08:55:35;3.20;;;3.00;;
3487;SDS011;38546;48.170;11.724;2023-04-15T08:58:32;6.30;;;3.23;;
3487;SDS011;38546;48.170;11.724;2023-04-15T09:01:23;3.73;;;3.40;;
3487;SDS011;38546;48.170;11.724;2023-04-15T09:04:14;5.33;;;3.93;;
3487;SDS011;38546;48.170;11.724;2023-04-15T09:07:05;5.20;;;4.00;;
3487;SDS011;38546;48.170;11.724;2023-04-15T09:09:54;4.37;;;3.30;;
3487;SDS011;38546;48.170;11.724;2023-04-15T09:12:44;5.57;;;4.67;;
3487;SDS011;38546;48.170;11.724;2023-04-15T09:15:33;7.77;;;3.90;;
3487;SDS011;38546;48.170;11.724;2023-04-15T09:18:28;4.97;;;3.80;;
3487;SDS011;38546;48.170;11.724;2023-04-15T09:21:19;4.10;;;3.50;;
3487;SDS011;38546;48.170;11.724;2023-04-15T09:24:09;5.07;;;4.30;;
3487;SDS011;38546;48.170;11.724;2023-04-15T09:26:59;4.27;;;3.90;;
3487;SDS011;38546;48.170;11.724;2023-04-15T09:29:49;4.10;;;3.70;;
3487;SDS011;38546;48.170;11.724;2023-04-15T09:32:47;5.63;;;3.90;;
3487;SDS011;38546;48.170;11.724;2023-04-15T09:35:42;8.70;;;3.57;;
3487;SDS011;38546;48.170;11.724;2023-04-15T09:38:59;5.90;;;3.93;;
3487;SDS011;38546;48.170;11.724;2023-04-15T09:42:02;7.60;;;5.13;;
3487;SDS011;38546;48.170;11.724;2023-04-15T09:44:54;6.57;;;4.67;;
3487;SDS011;38546;48.170;11.724;2023-04-15T09:47:44;8.13;;;4.93;;
3487;SDS011;38546;48.170;11.724;2023-04-15T09:50:33;11.63;;;6.10;;
3487;SDS011;38546;48.170;11.724;2023-04-15T09:53:32;6.47;;;4.93;;
3487;SDS011;38546;48.170;11.724;2023-04-15T09:56:23;7.83;;;5.17;;
3487;SDS011;38546;48.170;11.724;2023-04-15T09:59:23;5.73;;;4.50;;
3487;SDS011;38546;48.170;11.724;2023-04-15T10:02:12;7.90;;;4.17;;
3487;SDS011;38546;48.170;11.724;2023-04-15T10:05:02;7.67;;;5.20;;
3487;SDS011;38546;48.170;11.724;2023-04-15T10:07:52;5.03;;;4.40;;
3487;SDS011;38546;48.170;11.724;2023-04-15T10:10:43;5.30;;;4.70;;
3487;SDS011;38546;48.170;11.724;2023-04-15T10:13:34;5.57;;;4.50;;
3487;SDS011;38546;48.170;11.724;2023-04-15T10:16:26;6.97;;;5.40;;
3487;SDS011;38546;48.170;11.724;2023-04-15T10:19:18;5.80;;;4.77;;
3487;SDS011;38546;48.170;11.724;2023-04-15T10:22:14;7.20;;;4.73;;
3487;SDS011;38546;48.170;11.724;2023-04-15T10:25:04;6.83;;;5.23;;
3487;SDS011;38546;48.170;11.724;2023-04-15T10:27:54;7.13;;;4.97;;
3487;SDS011;38546;48.170;11.724;2023-04-15T10:30:45;6.80;;;5.27;;
3487;SDS011;38546;48.170;11.724;2023-04-15T10:33:37;8.30;;;5.17;;
3487;SDS011;38546;48.170;11.724;2023-04-15T10:36:28;6.43;;;5.07;;
3487;SDS011;38546;48.170;11.724;2023-04-15T10:45:40;4.37;;;3.97;;
3487;SDS011;38546;48.170;11.724;2023-04-15T10:48:33;9.60;;;4.73;;
3487;SDS011;38546;48.170;11.724;2023-04-15T10:51:25;7.73;;;5.23;;
3487;SDS011;38546;48.170;11.724;2023-04-15T10:58:42;5.73;;;5.13;;
3487;SDS011;38546;48.170;11.724;2023-04-15T11:04:55;6.30;;;5.00;;
3487;SDS011;38546;48.170;11.724;2023-04-15T11:07:47;9.57;;;6.20;;
3487;SDS011;38546;48.170;11.724;2023-04-15T11:10:51;7.30;;;5.27;;
3487;SDS011;38546;48.170;11.724;2023-04-15T11:13:48;10.97;;;5.40;;
3487;SDS011;38546;48.170;11.724;2023-04-15T11:16:42;9.63;;;6.40;;
3487;SDS011;38546;48.170;11.724;2023-04-15T11:19:35;9.80;;;5.93;;
3487;SDS011;38546;48.170;11.724;2023-04-15T11:22:27;11.70;;;6.47;;
3487;SDS011;38546;48.170;11.724;2023-04-15T11:25:23;9.33;;;5.90;;
3487;SDS011;38546;48.170;11.724;2023-04-15T11:28:14;8.27;;;5.70;;
3487;SDS011;38546;48.170;11.724;2023-04-15T11:31:10;8.17;;;5.73;;
3487;SDS011;38546;48.170;11.724;2023-04-15T11:34:02;7.27;;;5.30;;
3487;SDS011;38546;48.170;11.724;2023-04-15T11:36:51;8.37;;;5.50;;
3487;SDS011;38546;48.170;11.724;2023-04-15T11:39:46;7.63;;;5.60;;
3487;SDS011;38546;48.170;11.724;2023-04-15T11:42:37;15.70;;;6.10;;
3487;SDS011;38546;48.170;11.724;2023-04-15T11:45:26;5.90;;;4.93;;
3487;SDS011;38546;48.170;11.724;2023-04-15T11:48:16;6.60;;;5.40;;
3487;SDS011;38546;48.170;11.724;2023-04-15T11:51:06;8.10;;;5.93;;
3487;SDS011;38546;48.170;11.724;2023-04-15T11:53:55;11.33;;;5.70;;
3487;SDS011;38546;48.170;11.724;2023-04-15T11:56:49;13.73;;;7.47;;
3487;SDS011;38546;48.170;11.724;2023-04-15T11:59:42;8.23;;;6.23;;
3487;SDS011;38546;48.170;11.724;2023-04-15T12:02:35;10.00;;;7.20;;
3487;SDS011;38546;48.170;11.724;2023-04-15T12:05:24;6.57;;;5.83;;
3487;SDS011;38546;48.170;11.724;2023-04-15T12:08:14;11.50;;;6.40;;
3487;SDS011;38546;48.170;11.724;2023-04-15T12:11:03;9.50;;;7.03;;
3487;SDS011;38546;48.170;11.724;2023-04-15T12:14:03;6.40;;;5.80;;
3487;SDS011;38546;48.170;11.724;2023-04-15T12:17:19;8.10;;;5.80;;
3487;SDS011;38546;48.170;11.724;2023-04-15T12:20:12;9.13;;;7.00;;
3487;SDS011;38546;48.170;11.724;2023-04-15T12:23:04;8.67;;;6.00;;
3487;SDS011;38546;48.170;11.724;2023-04-15T12:25:54;7.60;;;6.73;;
3487;SDS011;38546;48.170;11.724;2023-04-15T12:28:44;13.10;;;7.93;;
3487;SDS011;38546;48.170;11.724;2023-04-15T12:31:34;6.60;;;5.33;;
3487;SDS011;38546;48.170;11.724;2023-04-15T12:34:29;7.30;;;4.93;;
3487;SDS011;38546;48.170;11.724;2023-04-15T12:37:24;7.03;;;4.37;;
3487;SDS011;38546;48.170;11.724;2023-04-15T12:40:13;8.07;;;4.77;;
3487;SDS011;38546;48.170;11.724;2023-04-15T12:43:03;7.80;;;5.13;;
3487;SDS011;38546;48.170;11.724;2023-04-15T12:45:51;5.20;;;4.70;;
3487;SDS011;38546;48.170;11.724;2023-04-15T12:48:41;4.67;;;4.27;;
3487;SDS011;38546;48.170;11.724;2023-04-15T12:51:30;8.97;;;3.77;;
3487;SDS011;38546;48.170;11.724;2023-04-15T12:54:19;8.10;;;4.57;;
3487;SDS011;38546;48.170;11.724;2023-04-15T12:57:08;6.60;;;4.60;;
3487;SDS011;38546;48.170;11.724;2023-04-15T12:59:58;5.60;;;4.60;;
3487;SDS011;38546;48.170;11.724;2023-04-15T13:02:47;7.27;;;4.63;;
3487;SDS011;38546;48.170;11.724;2023-04-15T13:05:37;9.73;;;5.07;;
3487;SDS011;38546;48.170;11.724;2023-04-15T13:08:27;7.43;;;5.37;;
3487;SDS011;38546;48.170;11.724;2023-04-15T13:11:16;12.23;;;5.80;;
3487;SDS011;38546;48.170;11.724;2023-04-15T13:14:05;8.60;;;6.13;;
3487;SDS011;38546;48.170;11.724;2023-04-15T13:16:56;5.60;;;4.50;;
3487;SDS011;38546;48.170;11.724;2023-04-15T13:19:46;7.60;;;6.13;;
3487;SDS011;38546;48.170;11.724;2023-04-15T13:22:35;8.70;;;6.33;;
3487;SDS011;38546;48.170;11.724;2023-04-15T13:25:24;12.93;;;8.40;;
3487;SDS011;38546;48.170;11.724;2023-04-15T13:28:13;15.93;;;8.50;;
3487;SDS011;38546;48.170;11.724;2023-04-15T13:31:03;17.53;;;6.90;;
3487;SDS011;38546;48.170;11.724;2023-04-15T13:33:53;11.23;;;7.13;;
3487;SDS011;38546;48.170;11.724;2023-04-15T13:36:44;19.03;;;6.90;;
3487;SDS011;38546;48.170;11.724;2023-04-15T13:39:34;10.37;;;7.70;;
3487;SDS011;38546;48.170;11.724;2023-04-15T13:42:23;12.13;;;7.43;;
3487;SDS011;38546;48.170;11.724;2023-04-15T13:45:13;14.37;;;8.47;;
3487;SDS011;38546;48.170;11.724;2023-04-15T13:48:02;10.63;;;8.70;;
3487;SDS011;38546;48.170;11.724;2023-04-15T13:50:52;8.13;;;6.40;;
3487;SDS011;38546;48.170;11.724;2023-04-15T13:53:41;10.80;;;7.97;;
3487;SDS011;38546;48.170;11.724;2023-04-15T13:56:30;9.83;;;6.67;;
3487;SDS011;38546;48.170;11.724;2023-04-15T13:59:19;12.87;;;9.40;;
3487;SDS011;38546;48.170;11.724;2023-04-15T14:02:08;18.10;;;7.23;;
3487;SDS011;38546;48.170;11.724;2023-04-15T14:04:58;13.57;;;6.40;;
3487;SDS011;38546;48.170;11.724;2023-04-15T14:07:48;10.00;;;7.20;;
3487;SDS011;38546;48.170;11.724;2023-04-15T14:10:37;10.50;;;7.50;;
3487;SDS011;38546;48.170;11.724;2023-04-15T14:13:27;9.27;;;6.47;;
3487;SDS011;38546;48.170;11.724;2023-04-15T14:16:16;8.30;;;5.57;;
3487;SDS011;38546;48.170;11.724;2023-04-15T14:19:05;11.53;;;5.80;;
3487;SDS011;38546;48.170;11.724;2023-04-15T14:21:55;6.67;;;5.00;;
3487;SDS011;38546;48.170;11.724;2023-04-15T14:24:44;8.87;;;4.70;;
3487;SDS011;38546;48.170;11.724;2023-04-15T14:27:33;4.93;;;4.50;;
3487;SDS011;38546;48.170;11.724;2023-04-15T14:30:23;7.83;;;5.90;;
3487;SDS011;38546;48.170;11.724;2023-04-15T14:33:13;6.17;;;5.13;;
3487;SDS011;38546;48.170;11.724;2023-04-15T14:36:02;8.00;;;5.70;;
3487;SDS011;38546;48.170;11.724;2023-04-15T14:38:52;6.07;;;4.70;;
3487;SDS011;38546;48.170;11.724;2023-04-15T14:41:41;10.27;;;5.10;;
3487;SDS011;38546;48.170;11.724;2023-04-15T14:44:30;6.60;;;5.40;;
3487;SDS011;38546;48.170;11.724;2023-04-15T14:47:19;7.33;;;4.90;;
3487;SDS011;38546;48.170;11.724;2023-04-15T14:50:09;9.67;;;4.80;;
3487;SDS011;38546;48.170;11.724;2023-04-15T14:52:59;4.80;;;4.20;;
3487;SDS011;38546;48.170;11.724;2023-04-15T14:55:48;5.87;;;4.80;;
3487;SDS011;38546;48.170;11.724;2023-04-15T14:58:37;7.90;;;5.30;;
3487;SDS011;38546;48.170;11.724;2023-04-15T15:01:26;7.80;;;5.87;;
3487;SDS011;38546;48.170;11.724;2023-04-15T15:04:16;5.40;;;4.90;;
3487;SDS011;38546;48.170;11.724;2023-04-15T15:07:05;5.27;;;4.40;;
3487;SDS011;38546;48.170;11.724;2023-04-15T15:09:55;9.67;;;5.90;;
3487;SDS011;38546;48.170;11.724;2023-04-15T15:12:43;5.90;;;4.90;;
3487;SDS011;38546;48.170;11.724;2023-04-15T15:15:33;9.30;;;6.90;;
3487;SDS011;38546;48.170;11.724;2023-04-15T15:18:25;5.90;;;5.00;;
3487;SDS011;38546;48.170;11.724;2023-04-15T15:21:14;8.00;;;5.87;;
3487;SDS011;38546;48.170;11.724;2023-04-15T15:24:03;10.63;;;5.80;;
3487;SDS011;38546;48.170;11.724;2023-04-15T15:26:54;5.93;;;5.00;;
3487;SDS011;38546;48.170;11.724;2023-04-15T15:29:44;4.83;;;4.33;;
3487;SDS011;38546;48.170;11.724;2023-04-15T15:32:34;5.03;;;3.97;;
3487;SDS011;38546;48.170;11.724;2023-04-15T15:35:24;4.40;;;4.00;;
3487;SDS011;38546;48.170;11.724;2023-04-15T15:38:13;5.17;;;4.67;;
3487;SDS011;38546;48.170;11.724;2023-04-15T15:41:03;6.47;;;4.30;;
3487;SDS011;38546;48.170;11.724;2023-04-15T15:43:52;6.97;;;5.20;;
3487;SDS011;38546;48.170;11.724;2023-04-15T15:46:42;6.10;;;5.23;;
3487;SDS011;38546;48.170;11.724;2023-04-15T15:49:30;5.83;;;4.73;;
3487;SDS011;38546;48.170;11.724;2023-04-15T15:52:20;10.50;;;6.23;;
3487;SDS011;38546;48.170;11.724;2023-04-15T15:55:09;9.83;;;5.50;;
3487;SDS011;38546;48.170;11.724;2023-04-15T15:57:58;8.67;;;5.47;;
3487;SDS011;38546;48.170;11.724;2023-04-15T16:00:46;8.10;;;6.57;;
3487;SDS011;38546;48.170;11.724;2023-04-15T16:03:35;9.60;;;6.13;;
3487;SDS011;38546;48.170;11.724;2023-04-15T16:06:24;9.13;;;6.33;;
3487;SDS011;38546;48.170;11.724;2023-04-15T16:09:14;8.03;;;6.97;;
3487;SDS011;38546;48.170;11.724;2023-04-15T16:12:04;9.33;;;6.53;;
3487;SDS011;38546;48.170;11.724;2023-04-15T16:14:53;7.57;;;6.50;;
3487;SDS011;38546;48.170;11.724;2023-04-15T16:17:42;9.13;;;6.60;;
3487;SDS011;38546;48.170;11.724;2023-04-15T16:20:31;8.33;;;6.50;;
3487;SDS011;38546;48.170;11.724;2023-04-15T16:23:20;6.50;;;5.90;;
3487;SDS011;38546;48.170;11.724;2023-04-15T16:26:10;8.70;;;7.03;;
3487;SDS011;38546;48.170;11.724;2023-04-15T16:28:59;9.67;;;7.07;;
3487;SDS011;38546;48.170;11.724;2023-04-15T16:31:49;9.33;;;6.80;;
3487;SDS011;38546;48.170;11.724;2023-04-15T16:34:38;13.77;;;8.07;;
3487;SDS011;38546;48.170;11.724;2023-04-15T16:37:28;8.10;;;6.10;;
3487;SDS011;38546;48.170;11.724;2023-04-15T16:40:19;8.73;;;7.37;;
3487;SDS011;38546;48.170;11.724;2023-04-15T16:43:08;8.97;;;6.63;;
3487;SDS011;38546;48.170;11.724;2023-04-15T16:45:58;10.17;;;7.10;;
3487;SDS011;38546;48.170;11.724;2023-04-15T16:48:48;9.70;;;7.17;;
3487;SDS011;38546;48.170;11.724;2023-04-15T16:51:36;8.53;;;6.60;;
3487;SDS011;38546;48.170;11.724;2023-04-15T16:54:25;9.20;;;7.30;;
3487;SDS011;38546;48.170;11.724;2023-04-15T16:57:16;8.60;;;6.37;;
3487;SDS011;38546;48.170;11.724;2023-04-15T17:00:06;10.33;;;8.57;;
3487;SDS011;38546;48.170;11.724;2023-04-15T17:02:56;11.33;;;6.67;;
3487;SDS011;38546;48.170;11.724;2023-04-15T17:05:48;16.03;;;7.20;;
3487;SDS011;38546;48.170;11.724;2023-04-15T17:08:38;11.37;;;6.33;;
3487;SDS011;38546;48.170;11.724;2023-04-15T17:11:27;8.60;;;6.20;;
3487;SDS011;38546;48.170;11.724;2023-04-15T17:14:16;7.80;;;6.10;;